sensor_id;sensor_type;location;lat;lon;timestamp;temperature;humidity
12386;DHT22;6257;57.634;18.310;2022-09-03T00:00:14;5.50;99.90
12386;DHT22;6257;57.634;18.310;2022-09-03T00:02:43;5.50;99.90
12386;DHT22;6257;57.634;18.310;2022-09-03T00:05:16;5.50;99.90
12386;DHT22;6257;57.634;18.310;2022-09-03T00:07:50;5.40;99.90
12386;DHT22;6257;57.634;18.310;2022-09-03T00:10:25;5.40;99.90
12386;DHT22;6257;57.634;18.310;2022-09-03T00:12:57;5.40;99.90
12386;DHT22;6257;57.634;18.310;2022-09-03T00:15:27;5.40;99.90
12386;DHT22;6257;57.634;18.310;2022-09-03T00:17:58;5.40;99.90
12386;DHT22;6257;57.634;18.310;2022-09-03T00:20:30;5.40;99.90
12386;DHT22;6257;57.634;18.310;2022-09-03T00:23:00;5.40;99.90
12386;DHT22;6257;57.634;18.310;2022-09-03T00:25:37;5.40;99.90
12386;DHT22;6257;57.634;18.310;2022-09-03T00:28:08;5.30;99.90
12386;DHT22;6257;57.634;18.310;2022-09-03T00:30:39;5.40;99.90
12386;DHT22;6257;57.634;18.310;2022-09-03T00:33:10;5.40;99.90
12386;DHT22;6257;57.634;18.310;2022-09-03T00:35:43;5.40;99.90
12386;DHT22;6257;57.634;18.310;2022-09-03T00:38:13;5.30;99.90
12386;DHT22;6257;57.634;18.310;2022-09-03T00:40:52;5.30;99.90
12386;DHT22;6257;57.634;18.310;2022-09-03T00:43:32;5.30;99.90
12386;DHT22;6257;57.634;18.310;2022-09-03T00:46:05;5.40;99.90
12386;DHT22;6257;57.634;18.310;2022-09-03T00:48:46;5.40;99.90
12386;DHT22;6257;57.634;18.310;2022-09-03T00:51:20;5.30;99.90
12386;DHT22;6257;57.634;18.310;2022-09-03T00:53:58;5.30;99.90
12386;DHT22;6257;57.634;18.310;2022-09-03T00:56:33;5.30;99.90
12386;DHT22;6257;57.634;18.310;2022-09-03T00:59:13;5.20;99.90
12386;DHT22;6257;57.634;18.310;2022-09-03T01:01:58;5.20;99.90
12386;DHT22;6257;57.634;18.310;2022-09-03T01:04:39;5.20;99.90
12386;DHT22;6257;57.634;18.310;2022-09-03T01:07:18;5.20;99.90
12386;DHT22;6257;57.634;18.310;2022-09-03T01:09:54;5.20;99.90
12386;DHT22;6257;57.634;18.310;2022-09-03T01:12:31;5.20;99.90
12386;DHT22;6257;57.634;18.310;2022-09-03T01:15:07;5.10;99.90
12386;DHT22;6257;57.634;18.310;2022-09-03T01:17:45;5.10;99.90
12386;DHT22;6257;57.634;18.310;2022-09-03T01:20:26;5.10;99.90
12386;DHT22;6257;57.634;18.310;2022-09-03T01:26:09;5.10;99.90
12386;DHT22;6257;57.634;18.310;2022-09-03T01:28:49;5.20;99.90
12386;DHT22;6257;57.634;18.310;2022-09-03T01:31:24;5.20;99.90
12386;DHT22;6257;57.634;18.310;2022-09-03T01:34:05;5.20;99.90
12386;DHT22;6257;57.634;18.310;2022-09-03T01:36:43;5.20;99.90
12386;DHT22;6257;57.634;18.310;2022-09-03T01:39:17;5.20;99.90
12386;DHT22;6257;57.634;18.310;2022-09-03T01:41:55;5.20;99.90
12386;DHT22;6257;57.634;18.310;2022-09-03T01:47:45;5.30;99.90
12386;DHT22;6257;57.634;18.310;2022-09-03T01:50:22;5.20;99.90
12386;DHT22;6257;57.634;18.310;2022-09-03T01:52:55;5.20;99.90
12386;DHT22;6257;57.634;18.310;2022-09-03T01:55:30;5.20;99.90
12386;DHT22;6257;57.634;18.310;2022-09-03T01:58:04;5.20;99.90
12386;DHT22;6257;57.634;18.310;2022-09-03T02:00:35;5.10;99.90
12386;DHT22;6257;57.634;18.310;2022-09-03T02:03:06;5.10;99.90
12386;DHT22;6257;57.634;18.310;2022-09-03T02:05:34;5.10;99.90
12386;DHT22;6257;57.634;18.310;2022-09-03T02:08:03;5.10;99.90
12386;DHT22;6257;57.634;18.310;2022-09-03T02:10:36;5.10;99.90
12386;DHT22;6257;57.634;18.310;2022-09-03T02:13:06;5.10;99.90
12386;DHT22;6257;57.634;18.310;2022-09-03T02:15:37;5.10;99.90
12386;DHT22;6257;57.634;18.310;2022-09-03T02:18:12;5.20;99.90
12386;DHT22;6257;57.634;18.310;2022-09-03T02:20:40;5.10;99.90
12386;DHT22;6257;57.634;18.310;2022-09-03T02:23:08;5.10;99.90
12386;DHT22;6257;57.634;18.310;2022-09-03T02:25:39;5.10;99.90
12386;DHT22;6257;57.634;18.310;2022-09-03T02:28:08;5.10;99.90
12386;DHT22;6257;57.634;18.310;2022-09-03T02:30:37;5.10;99.90
12386;DHT22;6257;57.634;18.310;2022-09-03T02:33:04;5.10;99.90
12386;DHT22;6257;57.634;18.310;2022-09-03T02:35:31;5.10;99.90
12386;DHT22;6257;57.634;18.310;2022-09-03T02:38:08;5.10;99.90
12386;DHT22;6257;57.634;18.310;2022-09-03T02:40:36;5.00;99.90
12386;DHT22;6257;57.634;18.310;2022-09-03T02:43:05;5.00;99.90
12386;DHT22;6257;57.634;18.310;2022-09-03T02:45:36;5.00;99.90
12386;DHT22;6257;57.634;18.310;2022-09-03T02:48:08;4.90;99.90
12386;DHT22;6257;57.634;18.310;2022-09-03T02:50:40;4.90;99.90
12386;DHT22;6257;57.634;18.310;2022-09-03T02:53:07;4.90;99.90
12386;DHT22;6257;57.634;18.310;2022-09-03T02:55:35;4.90;99.90
12386;DHT22;6257;57.634;18.310;2022-09-03T02:58:02;4.90;99.90
12386;DHT22;6257;57.634;18.310;2022-09-03T03:00:30;4.90;99.90
12386;DHT22;6257;57.634;18.310;2022-09-03T03:02:59;4.80;99.90
12386;DHT22;6257;57.634;18.310;2022-09-03T03:05:31;4.80;99.90
12386;DHT22;6257;57.634;18.310;2022-09-03T03:08:02;4.80;99.90
12386;DHT22;6257;57.634;18.310;2022-09-03T03:10:29;4.80;99.90
12386;DHT22;6257;57.634;18.310;2022-09-03T03:12:56;4.80;99.90
12386;DHT22;6257;57.634;18.310;2022-09-03T03:15:23;4.90;99.90
12386;DHT22;6257;57.634;18.310;2022-09-03T03:17:50;4.90;99.90
12386;DHT22;6257;57.634;18.310;2022-09-03T03:20:18;4.90;99.90
12386;DHT22;6257;57.634;18.310;2022-09-03T03:22:45;4.90;99.90
12386;DHT22;6257;57.634;18.310;2022-09-03T03:25:12;4.90;99.90
12386;DHT22;6257;57.634;18.310;2022-09-03T03:27:39;4.90;99.90
12386;DHT22;6257;57.634;18.310;2022-09-03T03:30:08;4.90;99.90
12386;DHT22;6257;57.634;18.310;2022-09-03T03:32:35;4.90;99.90
12386;DHT22;6257;57.634;18.310;2022-09-03T03:35:03;4.90;99.90
12386;DHT22;6257;57.634;18.310;2022-09-03T03:37:32;4.90;99.90
12386;DHT22;6257;57.634;18.310;2022-09-03T03:40:00;4.90;99.90
12386;DHT22;6257;57.634;18.310;2022-09-03T03:42:27;5.00;99.90
12386;DHT22;6257;57.634;18.310;2022-09-03T03:44:54;5.00;99.90
12386;DHT22;6257;57.634;18.310;2022-09-03T03:47:21;5.00;99.90
12386;DHT22;6257;57.634;18.310;2022-09-03T03:49:49;5.00;99.90
12386;DHT22;6257;57.634;18.310;2022-09-03T03:52:16;5.00;99.90
12386;DHT22;6257;57.634;18.310;2022-09-03T03:54:44;5.00;99.90
12386;DHT22;6257;57.634;18.310;2022-09-03T03:57:11;5.00;99.90
12386;DHT22;6257;57.634;18.310;2022-09-03T03:59:38;5.00;99.90
12386;DHT22;6257;57.634;18.310;2022-09-03T04:02:05;5.00;99.90
12386;DHT22;6257;57.634;18.310;2022-09-03T04:04:32;5.00;99.90
12386;DHT22;6257;57.634;18.310;2022-09-03T04:06:59;4.90;99.90
12386;DHT22;6257;57.634;18.310;2022-09-03T04:09:26;4.90;99.90
12386;DHT22;6257;57.634;18.310;2022-09-03T04:11:55;4.90;99.90
12386;DHT22;6257;57.634;18.310;2022-09-03T04:14:22;4.90;99.90
12386;DHT22;6257;57.634;18.310;2022-09-03T04:16:49;5.00;99.90
12386;DHT22;6257;57.634;18.310;2022-09-03T04:19:16;5.00;99.90
12386;DHT22;6257;57.634;18.310;2022-09-03T04:21:44;5.00;99.90
12386;DHT22;6257;57.634;18.310;2022-09-03T04:24:11;5.10;99.90
12386;DHT22;6257;57.634;18.310;2022-09-03T04:26:38;5.10;99.90
12386;DHT22;6257;57.634;18.310;2022-09-03T04:29:09;5.20;99.90
12386;DHT22;6257;57.634;18.310;2022-09-03T04:31:37;5.20;99.90
12386;DHT22;6257;57.634;18.310;2022-09-03T04:34:24;5.30;99.90
12386;DHT22;6257;57.634;18.310;2022-09-03T04:36:51;5.40;99.90
12386;DHT22;6257;57.634;18.310;2022-09-03T04:39:19;5.50;99.90
12386;DHT22;6257;57.634;18.310;2022-09-03T04:41:46;5.50;99.90
12386;DHT22;6257;57.634;18.310;2022-09-03T04:44:14;5.60;99.90
12386;DHT22;6257;57.634;18.310;2022-09-03T04:46:41;5.60;99.90
12386;DHT22;6257;57.634;18.310;2022-09-03T04:49:08;5.70;99.90
12386;DHT22;6257;57.634;18.310;2022-09-03T04:51:35;5.80;99.90
12386;DHT22;6257;57.634;18.310;2022-09-03T04:54:03;5.80;99.90
12386;DHT22;6257;57.634;18.310;2022-09-03T04:56:32;5.90;99.90
12386;DHT22;6257;57.634;18.310;2022-09-03T04:59:01;6.00;99.90
12386;DHT22;6257;57.634;18.310;2022-09-03T05:01:31;6.10;99.90
12386;DHT22;6257;57.634;18.310;2022-09-03T05:03:59;6.30;99.90
12386;DHT22;6257;57.634;18.310;2022-09-03T05:06:27;6.50;99.90
12386;DHT22;6257;57.634;18.310;2022-09-03T05:08:56;6.90;99.90
12386;DHT22;6257;57.634;18.310;2022-09-03T05:11:24;7.40;99.90
12386;DHT22;6257;57.634;18.310;2022-09-03T05:13:53;7.80;99.90
12386;DHT22;6257;57.634;18.310;2022-09-03T05:16:21;8.10;99.90
12386;DHT22;6257;57.634;18.310;2022-09-03T05:18:53;8.30;99.90
12386;DHT22;6257;57.634;18.310;2022-09-03T05:21:21;8.60;99.90
12386;DHT22;6257;57.634;18.310;2022-09-03T05:23:49;8.90;99.90
12386;DHT22;6257;57.634;18.310;2022-09-03T05:26:18;9.10;99.90
12386;DHT22;6257;57.634;18.310;2022-09-03T05:28:46;9.20;99.90
12386;DHT22;6257;57.634;18.310;2022-09-03T05:31:15;9.20;99.90
12386;DHT22;6257;57.634;18.310;2022-09-03T05:33:44;9.30;99.90
12386;DHT22;6257;57.634;18.310;2022-09-03T05:36:14;9.40;99.90
12386;DHT22;6257;57.634;18.310;2022-09-03T05:38:42;9.50;99.90
12386;DHT22;6257;57.634;18.310;2022-09-03T05:41:11;9.50;99.90
12386;DHT22;6257;57.634;18.310;2022-09-03T05:43:39;9.60;99.90
12386;DHT22;6257;57.634;18.310;2022-09-03T05:46:08;9.60;99.90
12386;DHT22;6257;57.634;18.310;2022-09-03T05:48:37;9.70;99.90
12386;DHT22;6257;57.634;18.310;2022-09-03T05:51:06;9.70;99.90
12386;DHT22;6257;57.634;18.310;2022-09-03T05:53:36;9.70;99.90
12386;DHT22;6257;57.634;18.310;2022-09-03T05:56:05;9.70;99.90
12386;DHT22;6257;57.634;18.310;2022-09-03T05:58:37;9.80;99.90
12386;DHT22;6257;57.634;18.310;2022-09-03T06:01:09;9.80;99.90
12386;DHT22;6257;57.634;18.310;2022-09-03T06:03:37;9.90;99.90
12386;DHT22;6257;57.634;18.310;2022-09-03T06:06:04;9.90;99.90
12386;DHT22;6257;57.634;18.310;2022-09-03T06:08:32;9.90;99.90
12386;DHT22;6257;57.634;18.310;2022-09-03T06:11:00;9.90;99.90
12386;DHT22;6257;57.634;18.310;2022-09-03T06:13:29;9.90;99.90
12386;DHT22;6257;57.634;18.310;2022-09-03T06:15:57;9.90;99.90
12386;DHT22;6257;57.634;18.310;2022-09-03T06:18:25;9.80;99.90
12386;DHT22;6257;57.634;18.310;2022-09-03T06:20:53;9.70;99.90
12386;DHT22;6257;57.634;18.310;2022-09-03T06:23:20;9.80;99.90
12386;DHT22;6257;57.634;18.310;2022-09-03T06:25:47;9.70;99.90
12386;DHT22;6257;57.634;18.310;2022-09-03T06:28:16;9.80;99.90
12386;DHT22;6257;57.634;18.310;2022-09-03T06:30:43;9.80;99.90
12386;DHT22;6257;57.634;18.310;2022-09-03T06:33:10;9.80;99.90
12386;DHT22;6257;57.634;18.310;2022-09-03T06:35:37;9.90;99.90
12386;DHT22;6257;57.634;18.310;2022-09-03T06:38:04;9.90;99.90
12386;DHT22;6257;57.634;18.310;2022-09-03T06:40:31;10.00;99.90
12386;DHT22;6257;57.634;18.310;2022-09-03T06:42:58;10.10;99.90
12386;DHT22;6257;57.634;18.310;2022-09-03T06:45:29;10.10;99.90
12386;DHT22;6257;57.634;18.310;2022-09-03T06:47:56;10.20;99.90
12386;DHT22;6257;57.634;18.310;2022-09-03T06:50:23;10.20;99.90
12386;DHT22;6257;57.634;18.310;2022-09-03T06:52:51;10.30;99.90
12386;DHT22;6257;57.634;18.310;2022-09-03T06:55:20;10.40;99.90
12386;DHT22;6257;57.634;18.310;2022-09-03T06:57:47;10.50;99.90
12386;DHT22;6257;57.634;18.310;2022-09-03T07:00:16;10.50;99.90
12386;DHT22;6257;57.634;18.310;2022-09-03T07:02:44;10.60;99.90
12386;DHT22;6257;57.634;18.310;2022-09-03T07:05:13;10.70;99.90
12386;DHT22;6257;57.634;18.310;2022-09-03T07:07:40;10.80;99.90
12386;DHT22;6257;57.634;18.310;2022-09-03T07:10:09;10.90;99.90
12386;DHT22;6257;57.634;18.310;2022-09-03T07:12:36;11.10;99.90
12386;DHT22;6257;57.634;18.310;2022-09-03T07:15:04;11.30;99.90
12386;DHT22;6257;57.634;18.310;2022-09-03T07:17:31;11.40;99.90
12386;DHT22;6257;57.634;18.310;2022-09-03T07:19:59;11.50;99.90
12386;DHT22;6257;57.634;18.310;2022-09-03T07:22:26;11.60;99.90
12386;DHT22;6257;57.634;18.310;2022-09-03T07:24:53;11.70;99.90
12386;DHT22;6257;57.634;18.310;2022-09-03T07:27:20;11.70;99.90
12386;DHT22;6257;57.634;18.310;2022-09-03T07:29:47;11.80;99.90
12386;DHT22;6257;57.634;18.310;2022-09-03T07:32:14;11.90;99.90
12386;DHT22;6257;57.634;18.310;2022-09-03T07:34:41;11.90;99.90
12386;DHT22;6257;57.634;18.310;2022-09-03T07:37:10;12.10;99.90
12386;DHT22;6257;57.634;18.310;2022-09-03T07:39:37;12.30;99.90
12386;DHT22;6257;57.634;18.310;2022-09-03T07:42:05;12.40;99.90
12386;DHT22;6257;57.634;18.310;2022-09-03T07:44:35;12.60;99.90
12386;DHT22;6257;57.634;18.310;2022-09-03T07:47:02;12.80;99.90
12386;DHT22;6257;57.634;18.310;2022-09-03T07:49:30;13.00;99.90
12386;DHT22;6257;57.634;18.310;2022-09-03T07:51:57;13.10;99.90
12386;DHT22;6257;57.634;18.310;2022-09-03T07:54:26;13.30;99.90
12386;DHT22;6257;57.634;18.310;2022-09-03T07:56:53;13.40;99.90
12386;DHT22;6257;57.634;18.310;2022-09-03T07:59:20;13.50;99.90
12386;DHT22;6257;57.634;18.310;2022-09-03T08:01:48;13.60;99.90
12386;DHT22;6257;57.634;18.310;2022-09-03T08:04:17;13.90;99.90
12386;DHT22;6257;57.634;18.310;2022-09-03T08:06:46;14.00;99.90
12386;DHT22;6257;57.634;18.310;2022-09-03T08:09:14;14.10;99.90
12386;DHT22;6257;57.634;18.310;2022-09-03T08:11:42;14.10;99.90
12386;DHT22;6257;57.634;18.310;2022-09-03T08:14:11;14.10;99.90
12386;DHT22;6257;57.634;18.310;2022-09-03T08:16:39;13.90;99.90
12386;DHT22;6257;57.634;18.310;2022-09-03T08:19:07;13.90;99.90
12386;DHT22;6257;57.634;18.310;2022-09-03T08:21:35;13.90;99.90
12386;DHT22;6257;57.634;18.310;2022-09-03T08:24:03;13.90;99.90
12386;DHT22;6257;57.634;18.310;2022-09-03T08:26:32;13.90;99.90
12386;DHT22;6257;57.634;18.310;2022-09-03T08:29:01;13.90;99.90
12386;DHT22;6257;57.634;18.310;2022-09-03T08:31:29;14.00;99.90
12386;DHT22;6257;57.634;18.310;2022-09-03T08:33:57;14.10;99.90
12386;DHT22;6257;57.634;18.310;2022-09-03T08:36:27;14.20;99.90
12386;DHT22;6257;57.634;18.310;2022-09-03T08:38:55;14.30;99.90
12386;DHT22;6257;57.634;18.310;2022-09-03T08:41:27;14.50;99.90
12386;DHT22;6257;57.634;18.310;2022-09-03T08:44:12;14.50;99.90
12386;DHT22;6257;57.634;18.310;2022-09-03T08:46:47;14.60;99.90
12386;DHT22;6257;57.634;18.310;2022-09-03T08:49:22;14.70;99.90
12386;DHT22;6257;57.634;18.310;2022-09-03T08:51:51;14.80;99.90
12386;DHT22;6257;57.634;18.310;2022-09-03T08:54:24;14.90;99.90
12386;DHT22;6257;57.634;18.310;2022-09-03T08:56:53;15.00;99.90
12386;DHT22;6257;57.634;18.310;2022-09-03T08:59:23;15.10;99.90
12386;DHT22;6257;57.634;18.310;2022-09-03T09:01:55;15.20;99.90
12386;DHT22;6257;57.634;18.310;2022-09-03T09:04:31;15.30;99.90
12386;DHT22;6257;57.634;18.310;2022-09-03T09:07:08;15.20;99.90
12386;DHT22;6257;57.634;18.310;2022-09-03T09:09:43;15.20;99.90
12386;DHT22;6257;57.634;18.310;2022-09-03T09:12:23;15.10;99.90
12386;DHT22;6257;57.634;18.310;2022-09-03T09:15:04;15.10;99.90
12386;DHT22;6257;57.634;18.310;2022-09-03T09:17:44;15.00;99.90
12386;DHT22;6257;57.634;18.310;2022-09-03T09:20:22;15.10;99.90
12386;DHT22;6257;57.634;18.310;2022-09-03T09:22:54;15.10;99.90
12386;DHT22;6257;57.634;18.310;2022-09-03T09:25:24;15.10;99.90
12386;DHT22;6257;57.634;18.310;2022-09-03T09:27:57;15.10;99.90
12386;DHT22;6257;57.634;18.310;2022-09-03T09:30:27;15.20;99.90
12386;DHT22;6257;57.634;18.310;2022-09-03T09:32:54;15.20;99.90
12386;DHT22;6257;57.634;18.310;2022-09-03T09:35:25;15.20;99.90
12386;DHT22;6257;57.634;18.310;2022-09-03T09:37:53;15.30;99.90
12386;DHT22;6257;57.634;18.310;2022-09-03T09:40:26;15.30;99.90
12386;DHT22;6257;57.634;18.310;2022-09-03T09:43:05;15.40;99.90
12386;DHT22;6257;57.634;18.310;2022-09-03T09:45:34;15.50;99.90
12386;DHT22;6257;57.634;18.310;2022-09-03T09:48:08;15.60;99.90
12386;DHT22;6257;57.634;18.310;2022-09-03T09:50:36;15.70;99.90
12386;DHT22;6257;57.634;18.310;2022-09-03T09:53:06;15.70;99.90
12386;DHT22;6257;57.634;18.310;2022-09-03T09:55:51;15.60;99.90
12386;DHT22;6257;57.634;18.310;2022-09-03T09:58:20;15.30;99.90
12386;DHT22;6257;57.634;18.310;2022-09-03T10:01:00;15.10;99.90
12386;DHT22;6257;57.634;18.310;2022-09-03T10:03:31;15.00;99.90
12386;DHT22;6257;57.634;18.310;2022-09-03T10:06:05;14.80;99.90
12386;DHT22;6257;57.634;18.310;2022-09-03T10:08:51;14.80;99.90
12386;DHT22;6257;57.634;18.310;2022-09-03T10:11:20;14.80;99.90
12386;DHT22;6257;57.634;18.310;2022-09-03T10:13:50;14.90;99.90
12386;DHT22;6257;57.634;18.310;2022-09-03T10:16:27;15.10;99.90
12386;DHT22;6257;57.634;18.310;2022-09-03T10:19:02;15.20;99.90
12386;DHT22;6257;57.634;18.310;2022-09-03T10:21:35;15.20;99.90
12386;DHT22;6257;57.634;18.310;2022-09-03T10:24:18;15.20;99.90
12386;DHT22;6257;57.634;18.310;2022-09-03T10:26:51;15.10;99.90
12386;DHT22;6257;57.634;18.310;2022-09-03T10:29:20;15.10;99.90
12386;DHT22;6257;57.634;18.310;2022-09-03T10:32:00;15.10;99.90
12386;DHT22;6257;57.634;18.310;2022-09-03T10:34:36;15.20;99.90
12386;DHT22;6257;57.634;18.310;2022-09-03T10:37:16;15.30;99.90
12386;DHT22;6257;57.634;18.310;2022-09-03T10:39:55;15.30;99.90
12386;DHT22;6257;57.634;18.310;2022-09-03T10:42:38;15.30;99.90
12386;DHT22;6257;57.634;18.310;2022-09-03T10:45:16;15.30;99.90
12386;DHT22;6257;57.634;18.310;2022-09-03T10:48:09;15.40;99.90
12386;DHT22;6257;57.634;18.310;2022-09-03T10:50:45;15.50;99.90
12386;DHT22;6257;57.634;18.310;2022-09-03T10:53:24;15.50;99.90
12386;DHT22;6257;57.634;18.310;2022-09-03T10:55:59;15.50;99.90
12386;DHT22;6257;57.634;18.310;2022-09-03T10:58:42;15.40;99.90
12386;DHT22;6257;57.634;18.310;2022-09-03T11:01:17;15.50;99.90
12386;DHT22;6257;57.634;18.310;2022-09-03T11:03:54;15.40;99.90
12386;DHT22;6257;57.634;18.310;2022-09-03T11:06:24;15.60;99.90
12386;DHT22;6257;57.634;18.310;2022-09-03T11:08:57;15.60;99.90
12386;DHT22;6257;57.634;18.310;2022-09-03T11:11:31;15.50;99.90
12386;DHT22;6257;57.634;18.310;2022-09-03T11:14:03;15.60;99.90
12386;DHT22;6257;57.634;18.310;2022-09-03T11:16:35;15.60;99.90
12386;DHT22;6257;57.634;18.310;2022-09-03T11:19:06;15.60;99.90
12386;DHT22;6257;57.634;18.310;2022-09-03T11:21:36;15.50;99.90
12386;DHT22;6257;57.634;18.310;2022-09-03T11:24:11;15.40;99.90
12386;DHT22;6257;57.634;18.310;2022-09-03T11:26:39;15.40;99.90
12386;DHT22;6257;57.634;18.310;2022-09-03T11:29:11;15.50;99.90
12386;DHT22;6257;57.634;18.310;2022-09-03T11:31:48;15.60;99.90
12386;DHT22;6257;57.634;18.310;2022-09-03T11:34:31;15.60;99.90
12386;DHT22;6257;57.634;18.310;2022-09-03T11:37:20;15.80;99.90
12386;DHT22;6257;57.634;18.310;2022-09-03T11:39:55;15.90;99.90
12386;DHT22;6257;57.634;18.310;2022-09-03T11:42:29;15.80;99.90
12386;DHT22;6257;57.634;18.310;2022-09-03T11:45:13;15.80;99.90
12386;DHT22;6257;57.634;18.310;2022-09-03T11:47:45;15.80;99.90
12386;DHT22;6257;57.634;18.310;2022-09-03T11:50:20;15.90;99.90
12386;DHT22;6257;57.634;18.310;2022-09-03T11:52:48;16.10;99.90
12386;DHT22;6257;57.634;18.310;2022-09-03T11:55:27;16.10;99.90
12386;DHT22;6257;57.634;18.310;2022-09-03T11:57:58;16.00;99.90
12386;DHT22;6257;57.634;18.310;2022-09-03T12:00:36;15.90;99.90
12386;DHT22;6257;57.634;18.310;2022-09-03T12:03:04;16.00;99.90
12386;DHT22;6257;57.634;18.310;2022-09-03T12:05:41;15.80;99.90
12386;DHT22;6257;57.634;18.310;2022-09-03T12:08:45;15.80;99.90
12386;DHT22;6257;57.634;18.310;2022-09-03T12:11:30;15.80;99.90
12386;DHT22;6257;57.634;18.310;2022-09-03T12:14:06;15.90;99.90
12386;DHT22;6257;57.634;18.310;2022-09-03T12:16:59;16.00;99.90
12386;DHT22;6257;57.634;18.310;2022-09-03T12:19:36;16.10;99.90
12386;DHT22;6257;57.634;18.310;2022-09-03T12:22:05;16.00;99.90
12386;DHT22;6257;57.634;18.310;2022-09-03T12:24:33;16.10;99.90
12386;DHT22;6257;57.634;18.310;2022-09-03T12:27:02;16.30;99.90
12386;DHT22;6257;57.634;18.310;2022-09-03T12:29:30;16.30;99.90
12386;DHT22;6257;57.634;18.310;2022-09-03T12:32:06;16.20;99.90
12386;DHT22;6257;57.634;18.310;2022-09-03T12:34:33;16.30;99.90
12386;DHT22;6257;57.634;18.310;2022-09-03T12:37:01;16.20;99.90
12386;DHT22;6257;57.634;18.310;2022-09-03T12:39:29;16.20;99.90
12386;DHT22;6257;57.634;18.310;2022-09-03T12:42:00;16.00;99.90
12386;DHT22;6257;57.634;18.310;2022-09-03T12:44:30;16.00;99.90
12386;DHT22;6257;57.634;18.310;2022-09-03T12:47:06;15.90;99.90
12386;DHT22;6257;57.634;18.310;2022-09-03T12:49:37;15.80;99.90
12386;DHT22;6257;57.634;18.310;2022-09-03T12:52:10;15.70;99.90
12386;DHT22;6257;57.634;18.310;2022-09-03T12:54:47;15.70;99.90
12386;DHT22;6257;57.634;18.310;2022-09-03T12:57:19;15.70;99.90
12386;DHT22;6257;57.634;18.310;2022-09-03T12:59:50;15.60;99.90
12386;DHT22;6257;57.634;18.310;2022-09-03T13:02:22;15.60;99.90
12386;DHT22;6257;57.634;18.310;2022-09-03T13:04:50;15.70;99.90
12386;DHT22;6257;57.634;18.310;2022-09-03T13:07:23;15.80;99.90
12386;DHT22;6257;57.634;18.310;2022-09-03T13:09:59;16.00;99.90
12386;DHT22;6257;57.634;18.310;2022-09-03T13:12:30;16.20;99.90
12386;DHT22;6257;57.634;18.310;2022-09-03T13:15:05;16.10;99.90
12386;DHT22;6257;57.634;18.310;2022-09-03T13:17:53;16.00;99.90
12386;DHT22;6257;57.634;18.310;2022-09-03T13:20:34;16.00;99.90
12386;DHT22;6257;57.634;18.310;2022-09-03T13:23:15;15.90;99.90
12386;DHT22;6257;57.634;18.310;2022-09-03T13:25:52;16.00;99.90
12386;DHT22;6257;57.634;18.310;2022-09-03T13:28:30;16.10;99.90
12386;DHT22;6257;57.634;18.310;2022-09-03T13:31:11;15.90;99.90
12386;DHT22;6257;57.634;18.310;2022-09-03T13:33:48;15.80;99.90
12386;DHT22;6257;57.634;18.310;2022-09-03T13:36:19;15.80;99.90
12386;DHT22;6257;57.634;18.310;2022-09-03T13:38:51;15.90;99.90
12386;DHT22;6257;57.634;18.310;2022-09-03T13:41:30;15.90;99.90
12386;DHT22;6257;57.634;18.310;2022-09-03T13:44:05;15.90;99.90
12386;DHT22;6257;57.634;18.310;2022-09-03T13:46:40;16.00;99.90
12386;DHT22;6257;57.634;18.310;2022-09-03T13:49:16;15.90;99.90
12386;DHT22;6257;57.634;18.310;2022-09-03T13:52:04;15.90;99.90
12386;DHT22;6257;57.634;18.310;2022-09-03T13:54:38;15.90;99.90
12386;DHT22;6257;57.634;18.310;2022-09-03T13:57:21;15.90;99.90
12386;DHT22;6257;57.634;18.310;2022-09-03T13:59:52;16.00;99.90
12386;DHT22;6257;57.634;18.310;2022-09-03T14:02:27;16.10;99.90
12386;DHT22;6257;57.634;18.310;2022-09-03T14:05:06;16.00;99.90
12386;DHT22;6257;57.634;18.310;2022-09-03T14:07:46;16.00;99.90
12386;DHT22;6257;57.634;18.310;2022-09-03T14:10:21;16.00;99.90
12386;DHT22;6257;57.634;18.310;2022-09-03T14:13:01;15.90;99.90
12386;DHT22;6257;57.634;18.310;2022-09-03T14:15:34;15.80;99.90
12386;DHT22;6257;57.634;18.310;2022-09-03T14:18:12;15.70;99.90
12386;DHT22;6257;57.634;18.310;2022-09-03T14:20:45;15.60;99.90
12386;DHT22;6257;57.634;18.310;2022-09-03T14:23:24;15.50;99.90
12386;DHT22;6257;57.634;18.310;2022-09-03T14:25:55;15.40;99.90
12386;DHT22;6257;57.634;18.310;2022-09-03T14:28:30;15.40;99.90
12386;DHT22;6257;57.634;18.310;2022-09-03T14:31:06;15.40;99.90
12386;DHT22;6257;57.634;18.310;2022-09-03T14:33:44;15.30;99.90
12386;DHT22;6257;57.634;18.310;2022-09-03T14:36:20;15.30;99.90
12386;DHT22;6257;57.634;18.310;2022-09-03T14:39:16;15.30;99.90
12386;DHT22;6257;57.634;18.310;2022-09-03T14:42:09;15.20;99.90
12386;DHT22;6257;57.634;18.310;2022-09-03T14:44:53;15.30;99.90
12386;DHT22;6257;57.634;18.310;2022-09-03T14:47:34;15.40;99.90
12386;DHT22;6257;57.634;18.310;2022-09-03T14:50:10;15.40;99.90
12386;DHT22;6257;57.634;18.310;2022-09-03T14:53:07;15.40;99.90
12386;DHT22;6257;57.634;18.310;2022-09-03T14:59:07;15.60;99.90
12386;DHT22;6257;57.634;18.310;2022-09-03T15:01:40;15.60;99.90
12386;DHT22;6257;57.634;18.310;2022-09-03T15:04:48;15.60;99.90
12386;DHT22;6257;57.634;18.310;2022-09-03T15:07:29;15.60;99.90
12386;DHT22;6257;57.634;18.310;2022-09-03T15:10:07;15.70;99.90
12386;DHT22;6257;57.634;18.310;2022-09-03T15:12:40;15.70;99.90
12386;DHT22;6257;57.634;18.310;2022-09-03T15:15:13;15.70;99.90
12386;DHT22;6257;57.634;18.310;2022-09-03T15:17:53;15.60;99.90
12386;DHT22;6257;57.634;18.310;2022-09-03T15:20:30;15.50;99.90
12386;DHT22;6257;57.634;18.310;2022-09-03T15:23:16;15.50;99.90
12386;DHT22;6257;57.634;18.310;2022-09-03T15:26:21;15.50;99.90
12386;DHT22;6257;57.634;18.310;2022-09-03T15:29:07;15.50;99.90
12386;DHT22;6257;57.634;18.310;2022-09-03T15:31:45;15.60;99.90
12386;DHT22;6257;57.634;18.310;2022-09-03T15:37:10;15.70;99.90
12386;DHT22;6257;57.634;18.310;2022-09-03T15:39:42;15.70;99.90
12386;DHT22;6257;57.634;18.310;2022-09-03T15:42:17;15.60;99.90
12386;DHT22;6257;57.634;18.310;2022-09-03T15:44:50;15.50;99.90
12386;DHT22;6257;57.634;18.310;2022-09-03T15:47:34;15.40;99.90
12386;DHT22;6257;57.634;18.310;2022-09-03T15:50:07;15.20;99.90
12386;DHT22;6257;57.634;18.310;2022-09-03T15:52:44;15.10;99.90
12386;DHT22;6257;57.634;18.310;2022-09-03T15:55:24;15.00;99.90
12386;DHT22;6257;57.634;18.310;2022-09-03T15:57:57;14.90;99.90
12386;DHT22;6257;57.634;18.310;2022-09-03T16:00:44;14.70;99.90
12386;DHT22;6257;57.634;18.310;2022-09-03T16:03:20;14.60;99.90
12386;DHT22;6257;57.634;18.310;2022-09-03T16:05:54;14.50;99.90
12386;DHT22;6257;57.634;18.310;2022-09-03T16:08:26;14.30;99.90
12386;DHT22;6257;57.634;18.310;2022-09-03T16:11:04;14.30;99.90
12386;DHT22;6257;57.634;18.310;2022-09-03T16:13:44;14.30;99.90
12386;DHT22;6257;57.634;18.310;2022-09-03T16:16:16;14.30;99.90
12386;DHT22;6257;57.634;18.310;2022-09-03T16:18:54;14.20;99.90
12386;DHT22;6257;57.634;18.310;2022-09-03T16:21:29;14.10;99.90
12386;DHT22;6257;57.634;18.310;2022-09-03T16:24:01;13.90;99.90